Time;durP1;ratioP1;P1;durP2;ratioP2;P2;SDS_P1;SDS_P2;PMS_P1;PMS_P2;Temp;Humidity;BMP_temperature;BMP_pressure;BME280_temperature;BME280_humidity;BME280_pressure;Samples;Min_cycle;Max_cycle;Signal;HPM_P1;HPM_P2
2024/04/24 00:00:28;;;;;;;13.50;7.88;;;6.90;99.90;;;;;;5432046;26;19998;-67
2024/04/24 00:02:54;;;;;;;14.20;8.40;;;6.80;99.90;;;;;;5460581;26;20115;-65
2024/04/24 00:05:20;;;;;;;17.42;8.63;;;6.80;99.90;;;;;;5459262;26;20013;-63
2024/04/24 00:07:46;;;;;;;15.48;8.50;;;6.90;99.90;;;;;;5453519;26;20335;-65
2024/04/24 00:10:13;;;;;;;15.20;8.68;;;6.80;99.90;;;;;;5456453;26;20006;-64
2024/04/24 00:12:39;;;;;;;17.90;9.40;;;6.80;99.90;;;;;;5461176;26;20060;-62
2024/04/24 00:15:05;;;;;;;16.17;9.82;;;6.80;99.90;;;;;;5463874;26;20916;-64
2024/04/24 00:17:30;;;;;;;16.45;9.15;;;6.80;99.90;;;;;;5455409;26;20066;-63
2024/04/24 00:19:56;;;;;;;17.92;9.55;;;6.80;99.90;;;;;;5459659;26;20513;-64
2024/04/24 00:22:21;;;;;;;14.07;9.13;;;6.80;99.90;;;;;;5428616;26;20350;-63
2024/04/24 00:24:47;;;;;;;20.33;10.90;;;6.80;99.90;;;;;;5470209;26;20074;-64
2024/04/24 00:27:12;;;;;;;19.80;10.07;;;6.80;99.90;;;;;;5463550;26;19990;-63
2024/04/24 00:29:38;;;;;;;17.50;10.25;;;6.70;99.90;;;;;;5450322;26;20017;-63
2024/04/24 00:32:07;;;;;;;15.73;9.25;;;6.80;99.90;;;;;;5467834;26;20009;-64
2024/04/24 00:34:32;;;;;;;15.85;9.98;;;6.80;99.90;;;;;;5440879;26;20006;-64
2024/04/24 00:36:58;;;;;;;15.70;9.68;;;6.70;99.90;;;;;;5462941;26;20411;-62
2024/04/24 00:39:24;;;;;;;15.23;9.80;;;6.70;99.90;;;;;;5455194;26;20003;-65
2024/04/24 00:41:50;;;;;;;18.13;10.68;;;6.70;99.90;;;;;;5457621;26;20018;-64
2024/04/24 00:44:15;;;;;;;18.10;10.57;;;6.70;99.90;;;;;;5457124;26;19995;-65
2024/04/24 00:46:43;;;;;;;23.23;10.88;;;6.70;99.90;;;;;;5455231;26;20003;-63
2024/04/24 00:49:10;;;;;;;18.52;10.80;;;6.70;99.90;;;;;;5486943;26;20013;-64
2024/04/24 00:51:37;;;;;;;18.95;10.68;;;6.60;99.90;;;;;;5504080;25;20046;-64
2024/04/24 00:54:04;;;;;;;20.63;11.30;;;6.60;99.90;;;;;;5513879;26;20550;-64
2024/04/24 00:56:30;;;;;;;18.83;11.35;;;6.70;99.90;;;;;;5497912;26;20098;-64
2024/04/24 00:58:55;;;;;;;18.30;10.90;;;6.60;99.90;;;;;;5514311;26;20001;-64
2024/04/24 01:01:22;;;;;;;18.88;10.93;;;6.60;99.90;;;;;;5508141;25;19998;-62
2024/04/24 01:03:47;;;;;;;17.40;10.50;;;6.60;99.90;;;;;;5509711;26;19998;-63
2024/04/24 01:06:13;;;;;;;19.33;11.50;;;6.60;99.90;;;;;;5516679;26;20018;-63
2024/04/24 01:08:38;;;;;;;19.08;10.05;;;6.60;99.90;;;;;;5515056;26;20037;-63
2024/04/24 01:11:04;;;;;;;17.98;10.85;;;6.60;99.90;;;;;;5517384;26;20033;-64
2024/04/24 01:13:30;;;;;;;15.07;9.65;;;6.60;99.90;;;;;;5510586;26;20001;-63
2024/04/24 01:16:09;;;;;;;17.08;10.40;;;6.60;99.90;;;;;;5506718;25;20901;-63
2024/04/24 01:18:39;;;;;;;17.50;9.35;;;6.60;99.90;;;;;;5476333;26;20008;-63
2024/04/24 01:21:06;;;;;;;14.40;9.32;;;6.60;99.90;;;;;;5516521;26;20005;-63
2024/04/24 01:23:53;;;;;;;16.48;8.48;;;6.60;99.90;;;;;;5516550;26;20001;-64
2024/04/24 01:26:41;;;;;;;14.32;9.05;;;6.60;99.90;;;;;;5506768;26;20066;-62
2024/04/24 01:29:07;;;;;;;15.57;9.88;;;6.60;99.90;;;;;;5508700;25;20011;-64
2024/04/24 01:31:32;;;;;;;15.85;10.20;;;6.60;99.90;;;;;;5496648;26;20003;-64
2024/04/24 01:33:58;;;;;;;17.75;9.15;;;6.50;99.90;;;;;;5492937;26;20121;-64
2024/04/24 01:36:23;;;;;;;16.73;10.73;;;6.50;99.90;;;;;;5503774;26;20013;-63
2024/04/24 01:38:49;;;;;;;15.77;9.40;;;6.50;99.90;;;;;;5499395;26;20013;-63
2024/04/24 01:41:15;;;;;;;16.13;9.93;;;6.50;99.90;;;;;;5469909;26;20012;-63
2024/04/24 01:43:40;;;;;;;16.38;8.75;;;6.50;99.90;;;;;;5504627;26;20012;-64
2024/04/24 01:46:06;;;;;;;16.55;9.23;;;6.60;99.90;;;;;;5499573;25;20391;-63
2024/04/24 01:48:31;;;;;;;17.70;9.65;;;6.50;99.90;;;;;;5493955;26;20012;-64
2024/04/24 01:50:57;;;;;;;14.82;8.23;;;6.50;99.90;;;;;;5493602;26;20597;-64
2024/04/24 01:53:22;;;;;;;16.50;10.10;;;6.60;99.90;;;;;;5497629;26;20012;-64
2024/04/24 01:55:48;;;;;;;14.95;8.52;;;6.50;99.90;;;;;;5504377;26;19989;-63
2024/04/24 01:58:14;;;;;;;15.10;8.80;;;6.50;99.90;;;;;;5500406;26;19989;-64
2024/04/24 02:00:39;;;;;;;14.73;9.32;;;6.40;99.90;;;;;;5500763;26;20206;-62
2024/04/24 02:03:05;;;;;;;11.70;8.00;;;6.40;99.90;;;;;;5495769;26;20018;-64
2024/04/24 02:05:30;;;;;;;13.82;7.95;;;6.50;99.90;;;;;;5456501;26;19995;-64
2024/04/24 02:07:56;;;;;;;13.68;8.27;;;6.50;99.90;;;;;;5457155;26;19990;-63
2024/04/24 02:10:21;;;;;;;16.23;8.68;;;6.50;99.90;;;;;;5463695;26;20002;-64
2024/04/24 02:12:47;;;;;;;13.45;8.32;;;6.50;99.90;;;;;;5461419;26;19994;-63
2024/04/24 02:15:13;;;;;;;17.65;7.10;;;6.50;99.90;;;;;;5434102;26;20835;-64
2024/04/24 02:17:38;;;;;;;16.33;8.25;;;6.50;99.90;;;;;;5462138;26;20441;-64
2024/04/24 02:20:04;;;;;;;17.00;8.88;;;6.50;99.90;;;;;;5497532;25;20565;-65
2024/04/24 02:22:30;;;;;;;13.20;7.80;;;6.40;99.90;;;;;;5495858;26;20012;-63
2024/04/24 02:27:40;;;;;;;14.48;8.05;;;6.40;99.90;;;;;;5492344;26;20017;-63
2024/04/24 02:30:06;;;;;;;14.02;8.10;;;6.40;99.90;;;;;;5494184;25;20057;-63
2024/04/24 02:32:31;;;;;;;17.17;9.40;;;6.40;99.90;;;;;;5503489;26;20001;-64
2024/04/24 02:34:57;;;;;;;15.13;7.40;;;6.40;99.90;;;;;;5498860;25;20005;-62
2024/04/24 02:37:22;;;;;;;15.68;7.63;;;6.40;99.90;;;;;;5508938;25;20073;-64
2024/04/24 02:39:48;;;;;;;14.77;7.97;;;6.40;99.90;;;;;;5517380;26;19990;-64
2024/04/24 02:42:14;;;;;;;16.23;8.35;;;6.40;99.90;;;;;;5516481;26;20008;-64
2024/04/24 02:44:39;;;;;;;14.80;7.63;;;6.40;99.90;;;;;;5498292;25;19997;-63
2024/04/24 02:47:05;;;;;;;14.75;6.88;;;6.30;99.90;;;;;;5512284;26;20497;-64
2024/04/24 02:49:30;;;;;;;15.07;7.78;;;6.30;99.90;;;;;;5502443;26;20012;-63
2024/04/24 02:51:56;;;;;;;15.95;8.27;;;6.30;99.90;;;;;;5510156;26;20673;-63
2024/04/24 02:54:21;;;;;;;13.27;6.95;;;6.30;99.90;;;;;;5503038;26;20001;-64
2024/04/24 02:56:47;;;;;;;14.35;6.78;;;6.30;99.90;;;;;;5473203;26;20461;-63
2024/04/24 02:59:13;;;;;;;12.18;6.57;;;6.30;99.90;;;;;;5503123;26;20004;-64
2024/04/24 03:01:38;;;;;;;13.27;6.22;;;6.30;99.90;;;;;;5511585;26;19997;-64
2024/04/24 03:04:04;;;;;;;17.13;5.95;;;6.30;99.90;;;;;;5501903;25;20018;-64
2024/04/24 03:06:29;;;;;;;11.75;5.20;;;6.20;99.90;;;;;;5508943;26;20009;-63
2024/04/24 03:08:55;;;;;;;12.50;5.88;;;6.20;99.90;;;;;;5513907;26;19994;-64
2024/04/24 03:11:21;;;;;;;13.90;6.35;;;6.20;99.90;;;;;;5496140;26;20424;-63
2024/04/24 03:13:46;;;;;;;14.23;6.38;;;6.10;99.90;;;;;;5500374;26;20006;-64
2024/04/24 03:16:12;;;;;;;15.43;6.82;;;6.20;99.90;;;;;;5494446;25;20006;-63
2024/04/24 03:18:37;;;;;;;13.25;5.85;;;6.10;99.90;;;;;;5498691;26;20012;-65
2024/04/24 03:21:03;;;;;;;13.63;5.95;;;6.20;99.90;;;;;;5487991;26;20002;-65
2024/04/24 03:23:29;;;;;;;12.52;5.60;;;6.10;99.90;;;;;;5500036;25;20009;-65
2024/04/24 03:25:54;;;;;;;16.45;5.60;;;6.10;99.90;;;;;;5489726;25;20582;-64
2024/04/24 03:28:20;;;;;;;21.42;5.78;;;6.10;99.90;;;;;;5499646;26;19994;-63
2024/04/24 03:30:45;;;;;;;14.27;5.60;;;6.10;99.90;;;;;;5497927;25;20006;-64
2024/04/24 03:33:11;;;;;;;15.95;5.47;;;6.00;99.90;;;;;;5497386;26;20073;-63
2024/04/24 03:35:36;;;;;;;10.35;5.00;;;6.00;99.90;;;;;;5494627;25;19998;-63
2024/04/24 03:38:02;;;;;;;15.02;6.22;;;6.00;99.90;;;;;;5509937;26;20012;-63
2024/04/24 03:40:28;;;;;;;10.75;5.35;;;6.10;99.90;;;;;;5512832;26;20076;-64
2024/04/24 03:42:53;;;;;;;10.45;5.53;;;6.10;99.90;;;;;;5509555;25;20041;-64
2024/04/24 03:45:19;;;;;;;17.58;5.60;;;6.00;99.90;;;;;;5502219;25;19993;-63
2024/04/24 03:47:44;;;;;;;12.98;5.35;;;6.00;99.90;;;;;;5501463;26;19998;-63
2024/04/24 03:50:10;;;;;;;13.25;5.15;;;6.00;99.90;;;;;;5514586;26;20009;-63
2024/04/24 03:52:35;;;;;;;11.68;4.90;;;6.00;99.90;;;;;;5500670;26;19997;-63
2024/04/24 03:55:01;;;;;;;15.68;4.90;;;6.00;99.90;;;;;;5499097;25;20509;-64
2024/04/24 03:57:27;;;;;;;12.40;5.55;;;6.00;99.90;;;;;;5501901;25;20662;-62
2024/04/24 03:59:52;;;;;;;14.40;5.10;;;5.90;99.90;;;;;;5503088;25;20005;-64
2024/04/24 04:02:18;;;;;;;22.08;5.03;;;6.00;99.90;;;;;;5493450;26;20005;-63
2024/04/24 04:04:43;;;;;;;14.68;5.40;;;6.00;99.90;;;;;;5499381;26;20350;-67
2024/04/24 04:07:09;;;;;;;11.40;5.18;;;6.00;99.90;;;;;;5501472;26;20005;-67
2024/04/24 04:09:34;;;;;;;15.45;6.15;;;6.00;99.90;;;;;;5507120;26;20041;-66
2024/04/24 04:12:00;;;;;;;11.95;5.32;;;6.00;99.90;;;;;;5516839;26;19998;-67
2024/04/24 04:14:26;;;;;;;15.20;5.00;;;6.00;99.90;;;;;;5507151;25;20002;-66
2024/04/24 04:16:51;;;;;;;12.40;4.68;;;6.00;99.90;;;;;;5504094;26;20490;-65
2024/04/24 04:19:17;;;;;;;11.32;5.65;;;6.00;99.90;;;;;;5506317;26;20009;-66
2024/04/24 04:21:42;;;;;;;13.18;5.18;;;6.00;99.90;;;;;;5499801;26;20002;-66
2024/04/24 04:24:08;;;;;;;9.30;4.45;;;6.00;99.90;;;;;;5467427;26;20017;-66
2024/04/24 04:26:34;;;;;;;8.50;4.53;;;6.10;99.90;;;;;;5501373;26;20062;-67
2024/04/24 04:28:59;;;;;;;16.25;5.10;;;6.10;99.90;;;;;;5481351;26;20009;-66
2024/04/24 04:31:25;;;;;;;18.02;4.85;;;6.00;99.90;;;;;;5507043;26;19998;-66
2024/04/24 04:33:50;;;;;;;9.88;4.43;;;6.10;99.90;;;;;;5491419;26;20002;-66
2024/04/24 04:36:16;;;;;;;15.27;4.85;;;6.00;99.90;;;;;;5501028;26;20538;-66
2024/04/24 04:38:41;;;;;;;10.63;4.70;;;6.00;99.90;;;;;;5483636;26;20412;-65
2024/04/24 04:41:07;;;;;;;12.52;4.95;;;6.00;99.90;;;;;;5517487;26;20025;-66
2024/04/24 04:43:32;;;;;;;8.07;3.90;;;6.00;99.90;;;;;;5513692;26;20001;-66
2024/04/24 04:45:58;;;;;;;16.27;4.78;;;6.00;99.90;;;;;;5496470;25;20002;-65
2024/04/24 04:48:24;;;;;;;12.13;5.10;;;6.00;99.90;;;;;;5478534;26;19994;-66
2024/04/24 04:50:49;;;;;;;7.82;3.95;;;6.00;99.90;;;;;;5471699;26;20030;-66
2024/04/24 04:53:16;;;;;;;7.68;3.83;;;6.00;99.90;;;;;;5469530;26;20005;-66
2024/04/24 04:55:41;;;;;;;8.77;4.28;;;6.10;99.90;;;;;;5476170;26;20005;-67
2024/04/24 04:58:07;;;;;;;12.68;4.95;;;6.00;99.90;;;;;;5502169;26;20826;-67
2024/04/24 05:00:32;;;;;;;9.10;4.32;;;6.00;99.90;;;;;;5501625;25;20061;-66
2024/04/24 05:02:58;;;;;;;12.93;3.88;;;6.10;99.90;;;;;;5503525;25;19994;-67
2024/04/24 05:05:24;;;;;;;7.78;4.15;;;6.10;99.90;;;;;;5497683;26;20065;-66
2024/04/24 05:07:49;;;;;;;10.52;4.20;;;6.10;99.90;;;;;;5502690;26;20018;-66
2024/04/24 05:10:15;;;;;;;13.30;4.13;;;6.10;99.90;;;;;;5493925;25;19997;-66
2024/04/24 05:12:40;;;;;;;20.08;4.35;;;6.20;99.90;;;;;;5506310;25;20413;-67
2024/04/24 05:15:08;;;;;;;10.77;3.97;;;6.20;99.90;;;;;;5508855;25;19993;-68
2024/04/24 05:17:35;;;;;;;14.98;4.43;;;6.10;99.90;;;;;;5498550;26;20050;-67
2024/04/24 05:20:00;;;;;;;9.77;3.63;;;6.10;99.90;;;;;;5503539;25;19997;-68
2024/04/24 05:22:33;;;;;;;8.50;3.88;;;6.20;99.90;;;;;;5506988;26;20074;-66
2024/04/24 05:24:59;;;;;;;10.00;3.15;;;6.20;99.90;;;;;;5499284;26;20046;-66
2024/04/24 05:30:09;;;;;;;8.48;3.45;;;6.30;99.90;;;;;;5503578;25;20077;-66
2024/04/24 05:32:34;;;;;;;13.13;4.13;;;6.30;99.90;;;;;;5505464;25;20041;-67
2024/04/24 05:35:00;;;;;;;13.20;4.40;;;6.30;99.90;;;;;;5499055;26;20681;-66
2024/04/24 05:37:25;;;;;;;10.45;4.60;;;6.20;99.90;;;;;;5504491;26;20012;-65
2024/04/24 05:39:51;;;;;;;13.45;4.30;;;6.20;99.90;;;;;;5504814;26;20026;-66
2024/04/24 05:42:17;;;;;;;10.25;3.70;;;6.20;99.90;;;;;;5500445;25;20462;-66
2024/04/24 05:44:42;;;;;;;14.02;4.07;;;6.30;99.90;;;;;;5501816;25;19998;-66
2024/04/24 05:47:08;;;;;;;10.32;4.28;;;6.30;99.90;;;;;;5479649;26;20826;-66
2024/04/24 05:49:33;;;;;;;14.68;4.53;;;6.30;99.90;;;;;;5508367;25;20780;-67
2024/04/24 05:51:59;;;;;;;11.30;3.42;;;6.30;99.90;;;;;;5513179;26;20013;-66
2024/04/24 05:54:24;;;;;;;11.02;3.85;;;6.30;99.90;;;;;;5477306;26;20012;-67
2024/04/24 05:56:50;;;;;;;5.05;3.17;;;6.40;99.90;;;;;;5474378;26;20013;-66
2024/04/24 05:59:16;;;;;;;11.95;3.42;;;6.40;99.90;;;;;;5479852;26;20005;-67
2024/04/24 06:01:41;;;;;;;16.40;3.33;;;6.40;99.90;;;;;;5469426;26;20084;-66
2024/04/24 06:04:07;;;;;;;14.30;3.28;;;6.40;99.90;;;;;;5506572;26;20001;-67
2024/04/24 06:06:32;;;;;;;12.73;3.22;;;6.50;99.90;;;;;;5505451;25;20005;-66
2024/04/24 06:08:58;;;;;;;12.38;2.95;;;6.50;99.90;;;;;;5514306;26;20468;-66
2024/04/24 06:11:23;;;;;;;9.93;3.35;;;6.50;99.90;;;;;;5517247;26;20062;-67
2024/04/24 06:13:49;;;;;;;11.68;2.97;;;6.60;99.90;;;;;;5506080;25;20082;-67
2024/04/24 06:16:14;;;;;;;9.55;3.30;;;6.60;99.90;;;;;;5511684;25;19998;-67
2024/04/24 06:18:40;;;;;;;17.30;3.35;;;6.70;99.90;;;;;;5505094;25;20017;-66
2024/04/24 06:21:06;;;;;;;12.63;1.92;;;6.60;99.90;;;;;;5514030;26;19997;-65
2024/04/24 06:23:31;;;;;;;19.73;3.20;;;6.50;99.90;;;;;;5505455;25;19994;-65
2024/04/24 06:25:57;;;;;;;11.98;3.47;;;6.50;99.90;;;;;;5475433;26;20456;-66
2024/04/24 06:28:22;;;;;;;10.43;2.05;;;6.60;99.90;;;;;;5510096;25;20029;-65
2024/04/24 06:30:48;;;;;;;11.35;2.33;;;6.60;99.90;;;;;;5504236;26;20477;-67
2024/04/24 06:33:14;;;;;;;13.43;3.33;;;6.60;99.90;;;;;;5512814;25;20005;-65
2024/04/24 06:35:39;;;;;;;14.27;2.28;;;6.70;99.90;;;;;;5511003;25;19993;-65
2024/04/24 06:38:05;;;;;;;17.40;2.70;;;6.70;99.90;;;;;;5509627;26;20330;-66
2024/04/24 06:40:30;;;;;;;12.77;2.40;;;6.90;99.90;;;;;;5510747;26;20001;-66
2024/04/24 06:42:56;;;;;;;15.68;3.20;;;6.80;99.90;;;;;;5483407;26;20039;-67
2024/04/24 06:45:22;;;;;;;11.43;2.55;;;6.80;99.90;;;;;;5515961;26;20354;-66
2024/04/24 06:47:47;;;;;;;17.55;2.97;;;6.80;99.90;;;;;;5513182;25;20051;-66
2024/04/24 06:50:13;;;;;;;10.48;2.22;;;6.80;99.90;;;;;;5507783;26;19989;-66
2024/04/24 06:52:39;;;;;;;14.35;2.97;;;6.80;99.90;;;;;;5511568;26;19997;-66
2024/04/24 06:55:04;;;;;;;12.32;2.45;;;6.90;99.90;;;;;;5515457;26;20016;-66
2024/04/24 06:57:30;;;;;;;11.25;2.60;;;7.00;99.90;;;;;;5514849;26;19999;-65
2024/04/24 06:59:55;;;;;;;11.85;3.50;;;7.00;99.90;;;;;;5516557;26;20008;-65
2024/04/24 07:02:21;;;;;;;13.43;2.80;;;7.00;99.90;;;;;;5514991;26;20406;-66
2024/04/24 07:04:46;;;;;;;9.27;2.90;;;6.90;99.90;;;;;;5514199;26;20008;-66
2024/04/24 07:07:12;;;;;;;14.40;2.70;;;7.00;99.90;;;;;;5512596;25;19989;-67
2024/04/24 07:09:37;;;;;;;9.98;2.75;;;7.00;99.90;;;;;;5514306;25;20069;-65
2024/04/24 07:12:03;;;;;;;17.05;2.58;;;6.90;99.90;;;;;;5482536;26;19997;-66
2024/04/24 07:14:29;;;;;;;11.25;2.67;;;7.00;99.90;;;;;;5511508;25;20058;-66
2024/04/24 07:16:54;;;;;;;10.27;2.20;;;7.00;99.90;;;;;;5514836;26;20029;-67
2024/04/24 07:19:20;;;;;;;10.52;2.50;;;7.00;99.90;;;;;;5512749;26;20021;-67
2024/04/24 07:21:46;;;;;;;7.30;2.15;;;7.00;99.90;;;;;;5513751;26;20002;-67
2024/04/24 07:24:12;;;;;;;8.05;1.85;;;7.00;99.90;;;;;;5516071;26;20005;-66
2024/04/24 07:26:39;;;;;;;14.00;2.20;;;7.00;99.90;;;;;;5484020;26;19993;-67
2024/04/24 07:29:05;;;;;;;15.25;2.72;;;7.00;99.90;;;;;;5506876;26;20013;-66
2024/04/24 07:31:30;;;;;;;7.20;2.10;;;7.10;99.90;;;;;;5515777;26;20431;-66
2024/04/24 07:33:56;;;;;;;8.07;2.03;;;7.10;99.90;;;;;;5515827;26;19997;-66
2024/04/24 07:36:21;;;;;;;9.52;1.88;;;7.00;99.90;;;;;;5512896;26;19998;-65
2024/04/24 07:38:48;;;;;;;15.70;1.90;;;6.90;99.90;;;;;;5513205;26;20013;-66
2024/04/24 07:41:15;;;;;;;14.68;2.15;;;6.90;99.90;;;;;;5479911;26;20009;-66
2024/04/24 07:43:41;;;;;;;17.75;3.65;;;7.00;99.90;;;;;;5511043;25;20006;-66
2024/04/24 07:46:06;;;;;;;11.07;2.17;;;7.00;99.90;;;;;;5512311;25;20331;-66
2024/04/24 07:48:32;;;;;;;11.40;1.80;;;7.00;99.90;;;;;;5513787;26;20932;-66
2024/04/24 07:50:57;;;;;;;10.52;1.85;;;7.00;99.90;;;;;;5514461;26;20497;-65
2024/04/24 07:53:23;;;;;;;11.07;1.77;;;7.10;99.90;;;;;;5506546;25;20046;-66
2024/04/24 07:55:49;;;;;;;12.60;2.80;;;7.10;99.90;;;;;;5511264;26;20029;-66
2024/04/24 07:58:14;;;;;;;9.70;2.60;;;7.10;99.90;;;;;;5511650;25;20008;-66
2024/04/24 08:00:40;;;;;;;8.95;2.05;;;7.00;99.90;;;;;;5510504;25;19997;-65
2024/04/24 08:03:05;;;;;;;5.72;2.22;;;7.00;99.90;;;;;;5507440;26;20037;-66
2024/04/24 08:05:31;;;;;;;10.43;2.33;;;7.00;99.90;;;;;;5515426;26;20931;-66
2024/04/24 08:07:57;;;;;;;16.67;2.50;;;7.10;99.90;;;;;;5512159;26;19997;-67
2024/04/24 08:10:22;;;;;;;11.98;1.95;;;7.20;99.90;;;;;;5509263;26;20479;-66
2024/04/24 08:12:48;;;;;;;12.23;1.70;;;7.20;99.90;;;;;;5473790;26;20085;-66
2024/04/24 08:15:14;;;;;;;11.80;1.88;;;7.20;99.90;;;;;;5507952;26;20084;-67
2024/04/24 08:17:39;;;;;;;11.02;2.17;;;7.20;99.90;;;;;;5510976;25;20067;-65
2024/04/24 08:20:05;;;;;;;9.02;1.98;;;7.30;99.90;;;;;;5479584;26;20055;-66
2024/04/24 08:22:31;;;;;;;7.43;1.27;;;7.30;99.90;;;;;;5471537;26;20001;-66
2024/04/24 08:24:56;;;;;;;9.82;2.20;;;7.20;99.90;;;;;;5504745;26;20971;-66
2024/04/24 08:27:23;;;;;;;4.90;1.30;;;7.10;99.90;;;;;;5486458;26;20408;-65
2024/04/24 08:29:48;;;;;;;7.30;1.50;;;7.20;99.90;;;;;;5504665;26;20046;-66
2024/04/24 08:32:14;;;;;;;9.15;1.23;;;7.30;99.90;;;;;;5510110;26;20006;-66
2024/04/24 08:34:39;;;;;;;8.13;1.35;;;7.30;99.90;;;;;;5503210;26;20013;-64
2024/04/24 08:37:05;;;;;;;8.52;1.60;;;7.20;99.90;;;;;;5513898;26;20005;-65
2024/04/24 08:39:31;;;;;;;3.75;1.35;;;7.30;99.90;;;;;;5495564;26;20020;-65
2024/04/24 08:41:57;;;;;;;5.70;1.00;;;7.30;99.90;;;;;;5513580;25;19993;-66
2024/04/24 08:44:27;;;;;;;6.55;1.13;;;7.10;99.90;;;;;;5512060;26;20017;-66
2024/04/24 08:46:55;;;;;;;3.95;1.08;;;7.10;99.90;;;;;;5509580;26;20005;-66
2024/04/24 08:49:21;;;;;;;5.20;0.88;;;7.10;99.90;;;;;;5510877;25;20010;-65
2024/04/24 08:51:47;;;;;;;5.47;1.67;;;7.10;99.90;;;;;;5512421;26;20001;-66
2024/04/24 08:54:18;;;;;;;6.78;1.23;;;7.10;99.90;;;;;;5517720;25;20008;-66
2024/04/24 08:57:00;;;;;;;4.80;1.30;;;7.00;99.90;;;;;;5509598;25;20001;-67
2024/04/24 08:59:38;;;;;;;7.70;1.77;;;7.10;99.90;;;;;;5513382;25;20092;-67
2024/04/24 09:02:08;;;;;;;7.20;1.05;;;7.00;99.90;;;;;;5516365;26;20071;-65
2024/04/24 09:04:39;;;;;;;8.10;1.30;;;7.10;99.90;;;;;;5478627;26;20497;-67
2024/04/24 09:07:05;;;;;;;8.85;1.88;;;7.20;99.90;;;;;;5481705;26;20001;-67
2024/04/24 09:09:32;;;;;;;5.93;1.30;;;7.30;99.90;;;;;;5487957;26;20035;-65
2024/04/24 09:12:06;;;;;;;4.32;1.38;;;7.50;99.90;;;;;;5484588;26;20009;-65
2024/04/24 09:14:32;;;;;;;12.38;2.42;;;7.50;99.90;;;;;;5448501;26;20010;-67
2024/04/24 09:16:58;;;;;;;5.20;1.80;;;7.60;99.90;;;;;;5484671;26;20001;-66
2024/04/24 09:19:24;;;;;;;9.07;1.85;;;7.60;99.90;;;;;;5483637;26;20339;-66
2024/04/24 09:21:49;;;;;;;3.75;1.42;;;7.80;99.90;;;;;;5488051;26;20078;-65
2024/04/24 09:24:16;;;;;;;7.68;1.48;;;8.00;99.90;;;;;;5482698;26;20323;-66
2024/04/24 09:26:42;;;;;;;6.60;1.23;;;8.10;99.90;;;;;;5491228;26;20460;-66
2024/04/24 09:29:12;;;;;;;6.05;1.73;;;8.20;99.90;;;;;;5472560;26;20499;-66
2024/04/24 09:31:38;;;;;;;2.85;1.48;;;8.30;99.90;;;;;;5485513;26;20009;-66
2024/04/24 09:34:04;;;;;;;6.35;1.35;;;8.30;99.90;;;;;;5472882;26;20002;-65
2024/04/24 09:36:31;;;;;;;3.08;1.23;;;8.20;99.90;;;;;;5480732;26;20436;-65
2024/04/24 09:38:57;;;;;;;4.45;1.15;;;8.20;99.80;;;;;;5476207;26;20012;-65
2024/04/24 09:41:23;;;;;;;3.63;1.25;;;8.40;99.80;;;;;;5481220;26;19991;-66
2024/04/24 09:43:49;;;;;;;7.43;1.15;;;8.50;99.90;;;;;;5473480;26;20020;-68
2024/04/24 09:46:18;;;;;;;3.88;1.65;;;8.50;99.30;;;;;;5470614;26;20005;-65
2024/04/24 09:48:44;;;;;;;8.23;1.50;;;8.40;99.20;;;;;;5477746;26;20814;-66
2024/04/24 09:51:11;;;;;;;3.88;1.35;;;8.40;99.80;;;;;;5468873;26;20002;-68
2024/04/24 09:53:37;;;;;;;5.38;1.40;;;8.50;99.90;;;;;;5478587;26;20689;-66
2024/04/24 09:56:23;;;;;;;9.30;1.52;;;8.30;99.50;;;;;;5474738;26;19991;-65
2024/04/24 09:58:50;;;;;;;5.00;1.17;;;8.30;99.40;;;;;;5512587;26;20442;-67
2024/04/24 10:01:18;;;;;;;2.33;1.40;;;8.30;99.30;;;;;;5492521;26;20009;-67
2024/04/24 10:03:47;;;;;;;2.28;1.33;;;8.40;99.50;;;;;;5476449;26;20336;-67
2024/04/24 10:06:18;;;;;;;2.45;1.08;;;8.50;99.10;;;;;;5491203;26;20078;-68
2024/04/24 10:08:45;;;;;;;3.97;0.98;;;8.50;98.90;;;;;;5491267;26;20006;-66
2024/04/24 10:11:12;;;;;;;9.52;1.27;;;8.70;99.40;;;;;;5508985;26;19997;-67
2024/04/24 10:13:41;;;;;;;6.00;1.48;;;8.80;98.70;;;;;;5483745;26;20013;-66
2024/04/24 10:16:08;;;;;;;2.78;1.00;;;8.60;98.20;;;;;;5516661;26;20009;-67
2024/04/24 10:18:35;;;;;;;2.47;1.00;;;8.70;98.60;;;;;;5477439;26;19994;-67
2024/04/24 10:21:05;;;;;;;2.65;0.98;;;8.80;98.60;;;;;;5480896;26;20007;-65
2024/04/24 10:23:31;;;;;;;7.38;1.10;;;8.90;98.60;;;;;;5505665;25;20009;-66
2024/04/24 10:25:57;;;;;;;3.85;0.90;;;8.90;98.40;;;;;;5513265;26;19998;-66
2024/04/24 10:28:24;;;;;;;2.75;0.90;;;9.00;98.20;;;;;;5516239;26;20519;-65
2024/04/24 10:30:52;;;;;;;7.03;1.38;;;9.00;97.60;;;;;;5516351;25;20648;-66
2024/04/24 10:33:19;;;;;;;3.40;1.00;;;9.00;98.00;;;;;;5514829;26;20002;-65
2024/04/24 10:35:44;;;;;;;3.80;1.00;;;9.10;97.70;;;;;;5504564;26;20470;-65
2024/04/24 10:38:13;;;;;;;4.38;1.42;;;9.20;97.70;;;;;;5485115;26;20022;-65
2024/04/24 10:40:39;;;;;;;2.40;0.88;;;9.30;98.00;;;;;;5510945;25;20002;-66
2024/04/24 10:43:06;;;;;;;3.45;1.23;;;9.30;97.20;;;;;;5482057;26;20005;-66
2024/04/24 10:45:39;;;;;;;12.82;1.73;;;9.40;96.80;;;;;;5516001;26;19997;-66
2024/04/24 10:48:05;;;;;;;3.13;1.17;;;9.50;96.90;;;;;;5505174;26;20011;-66
2024/04/24 10:50:34;;;;;;;4.85;1.20;;;9.50;96.30;;;;;;5517122;26;20001;-66
2024/04/24 10:53:02;;;;;;;6.90;1.55;;;9.50;96.50;;;;;;5508964;26;20540;-65
2024/04/24 10:55:27;;;;;;;5.00;1.60;;;9.50;96.00;;;;;;5494326;25;19993;-67
2024/04/24 10:57:53;;;;;;;2.92;1.33;;;9.50;95.80;;;;;;5511352;25;20050;-67
2024/04/24 11:00:24;;;;;;;5.97;1.40;;;9.70;95.70;;;;;;5511024;26;19993;-67
2024/04/24 11:02:55;;;;;;;3.08;1.17;;;9.60;95.30;;;;;;5510378;26;20020;-67
2024/04/24 11:05:22;;;;;;;5.93;1.33;;;9.60;95.60;;;;;;5510230;26;20781;-67
2024/04/24 11:08:01;;;;;;;5.05;1.35;;;9.60;95.50;;;;;;5502407;26;20005;-67
2024/04/24 11:10:28;;;;;;;6.55;1.65;;;9.40;95.60;;;;;;5515547;25;20005;-68
2024/04/24 11:12:53;;;;;;;3.60;1.13;;;9.30;95.50;;;;;;5515194;26;20020;-67
2024/04/24 11:15:21;;;;;;;4.03;1.63;;;9.30;95.70;;;;;;5513469;25;20005;-65
2024/04/24 11:17:53;;;;;;;2.75;1.30;;;9.50;96.20;;;;;;5511394;26;20455;-66
2024/04/24 11:20:26;;;;;;;3.97;1.58;;;9.60;96.50;;;;;;5484620;26;20004;-66
2024/04/24 11:22:52;;;;;;;6.65;1.50;;;9.80;95.90;;;;;;5509320;26;20005;-66
2024/04/24 11:25:18;;;;;;;4.35;1.75;;;9.90;95.90;;;;;;5515545;26;19998;-66
2024/04/24 11:27:44;;;;;;;4.32;1.42;;;10.20;95.50;;;;;;5514708;25;20013;-65
2024/04/24 11:30:15;;;;;;;3.90;1.40;;;10.40;95.00;;;;;;5505628;26;19997;-66
2024/04/24 11:32:44;;;;;;;4.78;1.60;;;10.50;94.80;;;;;;5479496;26;20335;-66
2024/04/24 11:35:10;;;;;;;3.53;1.17;;;10.60;94.90;;;;;;5507090;25;20041;-65
2024/04/24 11:37:37;;;;;;;4.78;1.17;;;10.60;94.70;;;;;;5482191;26;20005;-66
2024/04/24 11:40:04;;;;;;;2.90;1.10;;;10.50;94.60;;;;;;5506145;25;20017;-65
2024/04/24 11:42:30;;;;;;;3.20;0.98;;;10.40;94.50;;;;;;5505035;25;20012;-66
2024/04/24 11:44:57;;;;;;;6.22;1.33;;;10.50;95.00;;;;;;5509624;26;20029;-66
2024/04/24 11:47:23;;;;;;;3.63;1.30;;;10.40;94.90;;;;;;5511649;25;20087;-66
2024/04/24 11:49:52;;;;;;;4.50;1.30;;;10.60;95.20;;;;;;5506676;26;20460;-66
2024/04/24 11:52:18;;;;;;;3.83;0.98;;;10.70;94.90;;;;;;5514910;26;20002;-69
2024/04/24 11:54:48;;;;;;;4.47;1.02;;;10.90;95.00;;;;;;5507803;26;20029;-65
2024/04/24 11:57:15;;;;;;;4.72;1.40;;;11.10;94.40;;;;;;5497209;26;20026;-67
2024/04/24 11:59:46;;;;;;;4.27;1.23;;;11.20;94.00;;;;;;5508248;26;19998;-66
2024/04/24 12:02:19;;;;;;;3.13;0.90;;;11.40;94.20;;;;;;5477389;26;20228;-67
2024/04/24 12:04:46;;;;;;;3.63;0.95;;;11.70;94.20;;;;;;5496942;26;20079;-67
2024/04/24 12:07:11;;;;;;;4.80;1.00;;;11.80;93.90;;;;;;5505723;26;20001;-66
2024/04/24 12:09:38;;;;;;;3.25;1.20;;;12.20;93.90;;;;;;5514374;26;20014;-66
2024/04/24 12:12:04;;;;;;;1.85;1.00;;;12.50;93.50;;;;;;5474877;26;19997;-66
2024/04/24 12:14:33;;;;;;;2.80;0.98;;;12.70;93.10;;;;;;5514261;26;20020;-67
2024/04/24 12:16:59;;;;;;;4.43;1.20;;;12.70;92.40;;;;;;5512165;26;20012;-66
2024/04/24 12:19:26;;;;;;;3.17;1.20;;;12.80;92.80;;;;;;5507454;26;20455;-66
2024/04/24 12:21:52;;;;;;;4.22;0.90;;;12.90;92.00;;;;;;5513363;26;20077;-66
2024/04/24 12:24:18;;;;;;;4.45;0.80;;;12.80;92.10;;;;;;5512750;26;20002;-66
2024/04/24 12:26:44;;;;;;;2.22;0.90;;;12.60;91.40;;;;;;5502675;26;20682;-67
2024/04/24 12:29:10;;;;;;;2.95;0.90;;;12.10;91.20;;;;;;5480080;26;19997;-66
2024/04/24 12:31:38;;;;;;;3.67;1.00;;;12.20;91.60;;;;;;5515648;26;19990;-66
2024/04/24 12:34:04;;;;;;;3.15;1.30;;;11.90;91.60;;;;;;5512981;26;20071;-66
2024/04/24 12:36:31;;;;;;;3.28;0.90;;;11.90;91.80;;;;;;5518447;26;20002;-67
2024/04/24 12:38:57;;;;;;;4.22;1.20;;;11.70;91.90;;;;;;5480503;26;19997;-66
2024/04/24 12:41:23;;;;;;;4.72;0.90;;;11.50;91.70;;;;;;5515361;25;19996;-67
2024/04/24 12:43:48;;;;;;;3.63;0.95;;;11.20;92.60;;;;;;5513135;26;19989;-68
2024/04/24 12:46:14;;;;;;;1.60;1.05;;;10.80;93.80;;;;;;5508763;26;20009;-68
2024/04/24 12:48:39;;;;;;;4.20;1.45;;;10.30;95.00;;;;;;5515623;26;20045;-67
2024/04/24 12:51:08;;;;;;;3.70;1.30;;;10.30;95.30;;;;;;5515399;26;20005;-67